KMKL/MKL METAR and TAF weather

Enter ICAO airport designator
Station Type Date Time Source
KMKL METAR 2019/08/22 20:18 UTC NOAA

KMKL 222018Z 36015KT 3SM RA BR SCT021 BKN049 OVC080 23/22 A3002 RMK AO2 PK WND 02035/2002 LTG DSNT W-NE RAB00 P0006 T02280222


Station Type Date Time Source
KMKL Decoded METAR 2019/08/22 20:18 UTC NOAA

Station name not available
Aug 22, 2019 - 04:18 PM EDT / 2019.08.22 2018 UTC
Wind: from the N (360 degrees) at 17 MPH (15 KT):0
Visibility: 3 mile(s):0
Sky conditions: overcast
Weather: rain; mist; Lightning observed
Precipitation last hour: 0.06 inches
Temperature: 73.0 F (22.8 C)
Dew Point: 72.0 F (22.2 C)
Relative Humidity: 96%
Pressure (altimeter): 30.02 in. Hg (1016 hPa)
ob: KMKL 222018Z 36015KT 3SM RA BR SCT021 BKN049 OVC080 23/22 A3002 RMK AO2 PK WND 02035/2002 LTG DSNT W-NE RAB00 P0006 T02280222
cycle: 20

Station Type Date Time Source
KMKL TAF 2019/08/22 18:28 UTC NOAA

TAF KMKL 221726Z 2218/2318 21005KT P6SM VCSH SCT040 BKN250
FM221900 23006KT P6SM VCTS BKN045CB BKN150
TEMPO 2220/2223 31015G30KT 3SM TSRA OVC035CB
FM230200 17004KT P6SM FEW050 BKN120
TEMPO 2310/2313 5SM BR FEW010
FM231500 24003KT P6SM VCSH BKN030

Example: see airport list